Time;durP1;ratioP1;P1;durP2;ratioP2;P2;SDS_P1;SDS_P2;PMS_P1;PMS_P2;Temp;Humidity;BMP_temperature;BMP_pressure;BME280_temperature;BME280_humidity;BME280_pressure;Samples;Min_cycle;Max_cycle;Signal;HPM_P1;HPM_P2
2022/12/22 03:28:06;;;;;;;11.60;7.20;;;;;;;;;;5065223;28;20032;-80
2022/12/22 03:30:33;;;;;;;12.93;7.53;;;;;;;;;;5068099;28;20122;-82
2022/12/22 03:32:58;;;;;;;9.75;6.88;;;;;;;;;;5065793;28;20077;-81
2022/12/22 03:35:24;;;;;;;13.23;7.07;;;;;;;;;;5065380;28;20060;-81
2022/12/22 03:37:49;;;;;;;14.10;7.57;;;;;;;;;;5068308;28;20036;-81
2022/12/22 03:40:14;;;;;;;11.80;8.13;;;;;;;;;;5070324;28;20024;-81
2022/12/22 03:48:08;;;;;;;9.55;6.85;;;;;;;;;;5071516;28;20055;-81
2022/12/22 03:50:33;;;;;;;10.80;7.20;;;;;;;;;;5069208;28;20029;-81
2022/12/22 03:52:59;;;;;;;12.88;7.50;;;;;;;;;;5068586;28;20030;-81
2022/12/22 03:55:24;;;;;;;11.95;7.25;;;;;;;;;;5064859;28;20500;-81
2022/12/22 03:57:49;;;;;;;11.15;6.80;;;;;;;;;;5069001;28;20078;-81
2022/12/22 04:00:15;;;;;;;11.52;7.25;;;;;;;;;;5063812;28;20731;-81
2022/12/22 04:02:41;;;;;;;11.90;7.90;;;;;;;;;;5060252;28;20025;-81
2022/12/22 04:05:07;;;;;;;13.40;8.35;;;;;;;;;;5068362;28;20365;-81
2022/12/22 04:07:32;;;;;;;12.48;7.53;;;;;;;;;;5063993;28;20116;-81
2022/12/22 04:12:54;;;;;;;11.18;7.80;;;;;;;;;;5064400;28;20094;-81
2022/12/22 04:15:27;;;;;;;12.52;7.22;;;;;;;;;;5069146;28;20538;-81
2022/12/22 04:17:53;;;;;;;10.88;6.82;;;;;;;;;;5071093;28;20021;-81
2022/12/22 04:20:19;;;;;;;12.32;7.28;;;;;;;;;;5069000;28;20089;-80
2022/12/22 04:22:45;;;;;;;12.98;7.22;;;;;;;;;;5069205;28;20028;-81
2022/12/22 04:25:11;;;;;;;13.02;7.75;;;;;;;;;;5067217;28;20021;-81
2022/12/22 04:27:37;;;;;;;13.15;7.85;;;;;;;;;;5063202;28;20044;-79
2022/12/22 04:30:04;;;;;;;11.43;7.47;;;;;;;;;;5066531;28;20064;-81
2022/12/22 04:32:29;;;;;;;11.70;7.30;;;;;;;;;;5068105;28;20440;-81
2022/12/22 04:34:54;;;;;;;9.52;6.30;;;;;;;;;;5067717;28;20024;-82
2022/12/22 04:37:20;;;;;;;13.13;7.47;;;;;;;;;;5065462;28;20025;-80
2022/12/22 04:39:45;;;;;;;12.00;7.55;;;;;;;;;;5061459;28;20027;-80
2022/12/22 04:42:10;;;;;;;11.25;7.20;;;;;;;;;;5066005;28;20458;-81
2022/12/22 04:44:36;;;;;;;11.35;6.57;;;;;;;;;;5066438;28;20042;-81
2022/12/22 04:47:01;;;;;;;11.07;6.85;;;;;;;;;;5070529;28;20029;-81
2022/12/22 04:49:26;;;;;;;14.60;6.90;;;;;;;;;;5067804;28;20044;-81
2022/12/22 04:51:52;;;;;;;11.07;6.45;;;;;;;;;;5069894;28;20440;-81
2022/12/22 04:54:17;;;;;;;10.52;6.35;;;;;;;;;;5066379;28;20115;-81
2022/12/22 04:56:42;;;;;;;10.23;6.53;;;;;;;;;;5067466;28;20021;-82
2022/12/22 04:59:08;;;;;;;8.75;5.53;;;;;;;;;;5062250;28;20027;-81
2022/12/22 05:01:33;;;;;;;11.25;6.85;;;;;;;;;;5068123;28;20031;-81
2022/12/22 05:03:59;;;;;;;11.10;6.53;;;;;;;;;;5066106;28;20032;-81
2022/12/22 05:06:24;;;;;;;9.80;5.93;;;;;;;;;;5063670;28;20036;-81
2022/12/22 05:08:49;;;;;;;9.90;5.78;;;;;;;;;;5062860;28;20016;-81
2022/12/22 05:11:15;;;;;;;10.20;6.68;;;;;;;;;;5064636;28;20036;-81
2022/12/22 05:13:40;;;;;;;9.32;5.50;;;;;;;;;;5078968;28;20087;-81
2022/12/22 05:16:08;;;;;;;8.77;5.40;;;;;;;;;;5064230;28;20127;-81
2022/12/22 05:18:34;;;;;;;8.75;5.15;;;;;;;;;;5070046;28;20028;-81
2022/12/22 05:21:06;;;;;;;8.48;5.32;;;;;;;;;;5063148;28;20169;-82
2022/12/22 05:23:32;;;;;;;8.30;5.50;;;;;;;;;;5067403;28;20079;-81
2022/12/22 05:25:57;;;;;;;9.18;5.22;;;;;;;;;;5062893;28;20076;-81
2022/12/22 05:28:22;;;;;;;9.02;6.03;;;;;;;;;;5063107;28;20569;-80
2022/12/22 05:30:48;;;;;;;8.23;4.88;;;;;;;;;;5059714;28;20016;-80
2022/12/22 05:33:13;;;;;;;9.32;5.72;;;;;;;;;;5066545;28;20051;-81
2022/12/22 05:35:38;;;;;;;7.53;5.07;;;;;;;;;;5054249;28;20033;-81
2022/12/22 05:38:04;;;;;;;8.93;5.43;;;;;;;;;;5066505;28;20116;-80
2022/12/22 05:40:29;;;;;;;9.05;5.30;;;;;;;;;;5063694;28;20032;-81
2022/12/22 05:42:55;;;;;;;8.02;5.38;;;;;;;;;;5066346;28;20073;-82
2022/12/22 05:45:20;;;;;;;8.95;5.80;;;;;;;;;;5062750;28;20025;-81
2022/12/22 05:47:50;;;;;;;8.38;5.65;;;;;;;;;;5061102;28;20040;-81
2022/12/22 05:50:18;;;;;;;8.32;5.55;;;;;;;;;;5064200;28;20057;-81
2022/12/22 05:52:44;;;;;;;8.50;5.78;;;;;;;;;;5059269;28;20044;-81
2022/12/22 05:55:10;;;;;;;9.00;6.15;;;;;;;;;;5064431;28;20040;-80
2022/12/22 05:57:36;;;;;;;9.05;6.15;;;;;;;;;;5064439;28;20020;-81
2022/12/22 06:00:06;;;;;;;9.82;6.38;;;;;;;;;;5065163;28;20495;-80
2022/12/22 06:02:31;;;;;;;9.48;6.00;;;;;;;;;;5059121;28;20404;-81
2022/12/22 06:04:58;;;;;;;9.90;6.22;;;;;;;;;;5058798;28;20097;-81
2022/12/22 06:07:23;;;;;;;9.63;6.57;;;;;;;;;;5061090;28;20039;-81
2022/12/22 06:09:49;;;;;;;10.60;7.43;;;;;;;;;;5064233;28;20039;-81
2022/12/22 06:12:14;;;;;;;12.00;7.90;;;;;;;;;;5067037;28;20028;-81
2022/12/22 06:14:40;;;;;;;12.93;8.23;;;;;;;;;;5065273;28;20028;-81
2022/12/22 06:17:05;;;;;;;13.52;8.63;;;;;;;;;;5066474;28;20031;-80
2022/12/22 06:19:31;;;;;;;12.63;8.30;;;;;;;;;;5064646;28;20020;-80
2022/12/22 06:21:56;;;;;;;15.30;8.93;;;;;;;;;;5063554;28;20244;-81
2022/12/22 06:24:24;;;;;;;13.95;8.73;;;;;;;;;;5062991;28;20307;-81
2022/12/22 06:26:49;;;;;;;13.85;8.48;;;;;;;;;;5066837;28;20044;-81
2022/12/22 06:29:15;;;;;;;13.63;8.18;;;;;;;;;;5061644;28;20416;-81
2022/12/22 06:31:40;;;;;;;14.68;8.60;;;;;;;;;;5070762;28;20077;-80
2022/12/22 06:34:05;;;;;;;14.70;8.18;;;;;;;;;;5063062;28;20380;-81
2022/12/22 06:36:31;;;;;;;14.95;8.73;;;;;;;;;;5065645;28;20025;-81
2022/12/22 06:38:56;;;;;;;16.15;9.15;;;;;;;;;;5064698;28;20044;-81
2022/12/22 06:44:05;;;;;;;14.73;7.82;;;;;;;;;;5065423;28;20051;-81
2022/12/22 06:46:31;;;;;;;17.55;8.32;;;;;;;;;;5068275;28;20033;-80
2022/12/22 06:48:57;;;;;;;14.15;8.32;;;;;;;;;;5069590;28;20036;-81
2022/12/22 06:51:22;;;;;;;14.05;7.63;;;;;;;;;;5085840;28;20404;-81
2022/12/22 06:53:47;;;;;;;15.27;8.35;;;;;;;;;;5067273;28;20452;-82
2022/12/22 06:56:13;;;;;;;14.75;8.25;;;;;;;;;;5068909;28;20025;-81
2022/12/22 06:58:38;;;;;;;16.05;8.68;;;;;;;;;;5068782;28;20025;-80
2022/12/22 07:01:03;;;;;;;16.05;7.85;;;;;;;;;;5067619;28;20476;-81
2022/12/22 07:03:29;;;;;;;16.65;8.50;;;;;;;;;;5067544;28;20016;-81
2022/12/22 07:05:54;;;;;;;16.48;8.65;;;;;;;;;;5071897;28;20119;-81
2022/12/22 07:08:20;;;;;;;17.83;9.43;;;;;;;;;;5060147;28;20021;-81
2022/12/22 07:10:57;;;;;;;18.83;8.70;;;;;;;;;;5062845;28;20490;-81
2022/12/22 07:13:33;;;;;;;14.68;7.88;;;;;;;;;;5063099;28;20038;-80
2022/12/22 07:16:04;;;;;;;17.67;8.57;;;;;;;;;;5065235;28;20032;-81
2022/12/22 07:18:32;;;;;;;16.65;8.00;;;;;;;;;;5062516;28;20086;-81
2022/12/22 07:20:59;;;;;;;20.02;9.10;;;;;;;;;;5065388;28;20030;-81
2022/12/22 07:23:25;;;;;;;17.45;7.93;;;;;;;;;;5065331;28;20515;-81
2022/12/22 07:25:50;;;;;;;21.27;9.27;;;;;;;;;;5063890;28;20040;-81
2022/12/22 07:28:16;;;;;;;23.80;9.48;;;;;;;;;;5054667;28;20032;-81
2022/12/22 07:30:41;;;;;;;24.85;10.45;;;;;;;;;;5063364;28;20130;-81
2022/12/22 07:33:07;;;;;;;24.00;9.40;;;;;;;;;;5060521;28;20388;-81
2022/12/22 07:35:32;;;;;;;25.23;10.25;;;;;;;;;;5063287;28;20037;-81
2022/12/22 07:37:57;;;;;;;24.52;9.48;;;;;;;;;;5063712;28;20047;-81
2022/12/22 07:40:23;;;;;;;24.98;9.98;;;;;;;;;;5070172;28;20040;-81
2022/12/22 07:42:48;;;;;;;23.80;10.07;;;;;;;;;;5065464;28;20024;-81
2022/12/22 07:45:16;;;;;;;26.08;9.88;;;;;;;;;;5061321;28;20037;-82
2022/12/22 07:47:42;;;;;;;23.88;9.43;;;;;;;;;;5068440;28;20095;-81
2022/12/22 07:50:24;;;;;;;25.17;10.13;;;;;;;;;;5068072;28;20029;-81
2022/12/22 07:52:52;;;;;;;25.20;9.98;;;;;;;;;;5060473;28;20178;-81
2022/12/22 07:55:19;;;;;;;23.17;9.68;;;;;;;;;;5068866;28;20420;-81
2022/12/22 07:57:45;;;;;;;22.33;8.43;;;;;;;;;;5069714;28;20031;-81
2022/12/22 08:00:11;;;;;;;21.63;9.00;;;;;;;;;;5066010;28;20107;-81
2022/12/22 08:02:37;;;;;;;20.65;9.05;;;;;;;;;;5060721;28;20024;-82
2022/12/22 08:05:02;;;;;;;20.58;8.50;;;;;;;;;;5065744;28;20094;-81
2022/12/22 08:07:28;;;;;;;21.88;8.50;;;;;;;;;;5062742;28;20099;-82
2022/12/22 08:09:53;;;;;;;25.50;10.23;;;;;;;;;;5065015;28;20457;-81
2022/12/22 08:12:18;;;;;;;22.83;9.65;;;;;;;;;;5073174;28;20468;-82
2022/12/22 08:14:44;;;;;;;18.83;7.63;;;;;;;;;;5075060;28;20040;-82
2022/12/22 08:17:13;;;;;;;18.88;7.47;;;;;;;;;;5072954;28;20020;-82
2022/12/22 08:19:39;;;;;;;17.20;7.55;;;;;;;;;;5073550;28;20024;-81
2022/12/22 08:22:04;;;;;;;16.40;7.03;;;;;;;;;;5071487;28;20500;-80
2022/12/22 08:24:30;;;;;;;21.05;8.15;;;;;;;;;;5074036;28;20107;-81
2022/12/22 08:27:00;;;;;;;18.92;7.53;;;;;;;;;;5071605;28;20492;-81
2022/12/22 08:29:40;;;;;;;24.13;8.32;;;;;;;;;;5065819;28;20033;-81
2022/12/22 08:32:06;;;;;;;18.10;7.65;;;;;;;;;;5073592;28;20062;-81
2022/12/22 08:34:31;;;;;;;18.45;7.28;;;;;;;;;;5073563;28;20101;-81
2022/12/22 08:36:59;;;;;;;18.92;7.03;;;;;;;;;;5072719;28;20366;-81
2022/12/22 08:39:27;;;;;;;20.60;7.63;;;;;;;;;;5071931;28;20032;-81
2022/12/22 08:41:53;;;;;;;17.30;7.55;;;;;;;;;;5069788;28;20379;-81
2022/12/22 08:44:24;;;;;;;18.13;7.47;;;;;;;;;;5069828;28;20028;-82
2022/12/22 08:46:51;;;;;;;19.40;7.13;;;;;;;;;;5073592;28;20123;-82
2022/12/22 08:49:17;;;;;;;16.38;6.63;;;;;;;;;;5069336;28;20086;-82
2022/12/22 08:51:42;;;;;;;18.00;7.10;;;;;;;;;;5072441;28;20024;-82
2022/12/22 08:54:08;;;;;;;21.38;7.57;;;;;;;;;;5071765;28;20025;-81
2022/12/22 08:56:34;;;;;;;16.30;6.95;;;;;;;;;;5069210;28;20040;-82
2022/12/22 08:59:03;;;;;;;20.35;7.28;;;;;;;;;;5071911;28;20016;-81
2022/12/22 09:01:31;;;;;;;23.00;9.27;;;;;;;;;;5076347;28;20115;-82
2022/12/22 09:03:57;;;;;;;20.27;8.95;;;;;;;;;;5086793;28;20039;-81
2022/12/22 09:06:24;;;;;;;20.08;9.38;;;;;;;;;;5066960;28;20420;-81
2022/12/22 09:08:56;;;;;;;21.58;9.18;;;;;;;;;;5069693;28;20033;-82
2022/12/22 09:11:23;;;;;;;20.35;8.65;;;;;;;;;;5067107;28;20031;-81
2022/12/22 09:13:54;;;;;;;22.00;9.65;;;;;;;;;;5061038;28;20029;-82
2022/12/22 09:16:20;;;;;;;19.38;9.18;;;;;;;;;;5073131;28;20534;-82
2022/12/22 09:18:46;;;;;;;20.35;8.73;;;;;;;;;;5068675;28;20024;-81
2022/12/22 09:21:12;;;;;;;21.63;9.38;;;;;;;;;;5072654;28;20472;-82
2022/12/22 09:23:37;;;;;;;19.38;8.55;;;;;;;;;;5065768;28;20032;-82
2022/12/22 09:26:10;;;;;;;16.50;8.40;;;;;;;;;;5062378;28;20045;-81
2022/12/22 09:28:36;;;;;;;18.40;8.10;;;;;;;;;;5069686;28;20477;-82
2022/12/22 09:31:02;;;;;;;15.70;7.03;;;;;;;;;;5072116;28;20016;-81
2022/12/22 09:33:28;;;;;;;17.08;8.20;;;;;;;;;;5079615;28;20495;-81
2022/12/22 09:35:53;;;;;;;17.33;7.88;;;;;;;;;;5087746;28;20043;-81
2022/12/22 09:38:19;;;;;;;20.40;7.95;;;;;;;;;;5073636;28;20021;-81
2022/12/22 09:40:44;;;;;;;20.73;7.93;;;;;;;;;;5071827;28;20043;-81
2022/12/22 09:43:24;;;;;;;18.08;7.30;;;;;;;;;;5070999;28;20021;-81
2022/12/22 09:45:49;;;;;;;16.48;8.32;;;;;;;;;;5066569;28;20036;-81
2022/12/22 09:48:14;;;;;;;17.50;8.18;;;;;;;;;;5071872;28;20078;-81
2022/12/22 09:50:41;;;;;;;19.98;8.88;;;;;;;;;;5064572;28;20511;-81
2022/12/22 09:53:16;;;;;;;22.15;8.95;;;;;;;;;;5072749;28;20032;-81
2022/12/22 09:55:46;;;;;;;19.40;8.40;;;;;;;;;;5077922;28;20503;-81
2022/12/22 09:58:41;;;;;;;21.85;8.70;;;;;;;;;;5062109;28;20020;-81
2022/12/22 10:01:13;;;;;;;22.27;9.13;;;;;;;;;;5066989;28;20078;-81
2022/12/22 10:04:09;;;;;;;20.08;9.02;;;;;;;;;;5068736;28;20035;-81
2022/12/22 10:07:05;;;;;;;22.88;9.75;;;;;;;;;;5064132;28;20086;-81
2022/12/22 10:09:31;;;;;;;19.88;9.23;;;;;;;;;;5060641;28;20024;-81
2022/12/22 10:11:59;;;;;;;20.05;9.48;;;;;;;;;;5073335;28;20054;-81
2022/12/22 10:14:36;;;;;;;21.25;9.88;;;;;;;;;;5070934;28;20032;-81
2022/12/22 10:17:20;;;;;;;18.58;8.90;;;;;;;;;;5070682;28;20502;-81
2022/12/22 10:19:47;;;;;;;20.65;8.88;;;;;;;;;;5068423;28;20024;-81
2022/12/22 10:22:33;;;;;;;21.23;8.23;;;;;;;;;;5087244;28;20077;-81
2022/12/22 10:25:05;;;;;;;15.40;7.95;;;;;;;;;;5068263;28;20450;-81
2022/12/22 10:27:32;;;;;;;19.67;9.48;;;;;;;;;;5069899;28;20040;-82
2022/12/22 10:30:20;;;;;;;17.88;8.20;;;;;;;;;;5071586;28;20028;-81
2022/12/22 10:33:06;;;;;;;18.30;8.80;;;;;;;;;;5060656;28;20050;-81
2022/12/22 10:35:50;;;;;;;16.80;7.53;;;;;;;;;;5068373;28;20024;-81
2022/12/22 10:38:20;;;;;;;15.90;7.82;;;;;;;;;;5066809;28;20078;-82
2022/12/22 10:40:48;;;;;;;18.92;8.00;;;;;;;;;;5062956;28;20028;-81
2022/12/22 10:43:25;;;;;;;18.55;7.90;;;;;;;;;;5063567;28;20039;-82
2022/12/22 10:45:52;;;;;;;18.77;8.38;;;;;;;;;;5070449;28;20027;-81
2022/12/22 10:48:34;;;;;;;20.17;8.35;;;;;;;;;;5070396;28;20039;-81
2022/12/22 10:51:01;;;;;;;15.80;7.65;;;;;;;;;;5068821;28;20050;-81
2022/12/22 10:53:52;;;;;;;18.13;8.30;;;;;;;;;;5069198;28;20031;-82
2022/12/22 10:56:26;;;;;;;16.35;8.25;;;;;;;;;;5071377;28;20032;-82
2022/12/22 10:58:55;;;;;;;;;;;;;;;;;;5065265;28;20024;-81
2022/12/22 11:01:35;;;;;;;15.77;7.82;;;;;;;;;;5070434;28;19916;-81
2022/12/22 11:04:22;;;;;;;14.98;8.02;;;;;;;;;;5069601;28;20051;-81
2022/12/22 11:06:48;;;;;;;17.85;8.43;;;;;;;;;;5051424;28;20057;-82
2022/12/22 11:09:14;;;;;;;17.38;8.48;;;;;;;;;;5068663;28;20020;-82
2022/12/22 11:11:57;;;;;;;17.75;8.35;;;;;;;;;;5069858;28;20383;-81
2022/12/22 11:14:46;;;;;;;16.73;8.55;;;;;;;;;;5066186;28;20496;-81
2022/12/22 11:17:15;;;;;;;15.38;8.15;;;;;;;;;;5066272;28;20102;-81
2022/12/22 11:20:22;;;;;;;14.82;7.45;;;;;;;;;;5064420;28;20120;-81
2022/12/22 11:23:24;;;;;;;15.00;7.50;;;;;;;;;;5068459;28;20098;-82
2022/12/22 11:26:11;;;;;;;17.08;8.07;;;;;;;;;;5067020;28;20135;-83
2022/12/22 11:28:42;;;;;;;15.73;8.05;;;;;;;;;;5067133;28;20027;-81
2022/12/22 11:31:20;;;;;;;18.20;7.63;;;;;;;;;;5073483;28;20498;-82
2022/12/22 11:34:12;;;;;;;14.32;7.45;;;;;;;;;;5066912;28;20028;-82
2022/12/22 11:36:46;;;;;;;13.60;6.95;;;;;;;;;;5062166;28;20056;-82
2022/12/22 11:39:19;;;;;;;13.70;6.32;;;;;;;;;;5065599;28;20070;-82
2022/12/22 11:42:20;;;;;;;13.80;6.47;;;;;;;;;;5071967;28;20046;-82
2022/12/22 11:44:48;;;;;;;15.02;6.78;;;;;;;;;;5070738;28;20505;-82
2022/12/22 11:47:20;;;;;;;12.45;6.80;;;;;;;;;;5072984;28;20033;-82
2022/12/22 11:49:59;;;;;;;16.60;7.22;;;;;;;;;;5073378;28;20029;-82
2022/12/22 11:52:40;;;;;;;15.40;6.32;;;;;;;;;;5070272;28;20028;-82
2022/12/22 11:55:31;;;;;;;18.08;8.10;;;;;;;;;;5070881;28;20017;-80
2022/12/22 11:58:22;;;;;;;16.05;7.57;;;;;;;;;;5063205;28;20070;-82
2022/12/22 12:01:06;;;;;;;13.65;7.28;;;;;;;;;;5072172;28;20024;-82
2022/12/22 12:04:02;;;;;;;16.83;7.55;;;;;;;;;;5073993;28;20508;-82
2022/12/22 12:06:55;;;;;;;12.65;6.30;;;;;;;;;;5072713;28;20056;-82
2022/12/22 12:09:29;;;;;;;11.30;6.32;;;;;;;;;;5066345;28;20115;-82
2022/12/22 12:12:12;;;;;;;14.80;6.50;;;;;;;;;;5069457;28;20024;-82
2022/12/22 12:14:57;;;;;;;16.42;6.57;;;;;;;;;;5070234;28;20043;-82
2022/12/22 12:17:25;;;;;;;16.67;7.75;;;;;;;;;;5068933;28;20032;-82
2022/12/22 12:20:17;;;;;;;14.85;7.95;;;;;;;;;;5072358;28;20020;-82
2022/12/22 12:23:06;;;;;;;13.40;7.53;;;;;;;;;;5073328;28;20032;-83
2022/12/22 12:25:54;;;;;;;15.85;8.15;;;;;;;;;;5067977;28;20028;-81
2022/12/22 12:28:22;;;;;;;16.52;8.85;;;;;;;;;;5073524;28;20039;-82
2022/12/22 12:30:58;;;;;;;18.77;9.55;;;;;;;;;;5064732;28;20036;-82
2022/12/22 12:33:33;;;;;;;18.92;9.52;;;;;;;;;;5074886;28;20089;-83
2022/12/22 12:36:36;;;;;;;18.25;9.95;;;;;;;;;;5059979;28;20033;-81
2022/12/22 12:39:15;;;;;;;19.33;10.52;;;;;;;;;;5072257;28;20378;-82
2022/12/22 12:41:52;;;;;;;20.02;10.55;;;;;;;;;;5064025;28;20032;-83
2022/12/22 12:44:23;;;;;;;20.58;11.20;;;;;;;;;;5072648;28;20032;-83
2022/12/22 12:46:55;;;;;;;27.60;11.32;;;;;;;;;;5071254;28;20475;-83
2022/12/22 12:49:33;;;;;;;17.80;11.07;;;;;;;;;;5072025;28;20050;-83
2022/12/22 12:52:02;;;;;;;24.20;11.00;;;;;;;;;;5068916;28;20028;-82
2022/12/22 12:54:30;;;;;;;20.77;11.10;;;;;;;;;;5069494;28;20025;-82
2022/12/22 12:57:06;;;;;;;23.67;12.57;;;;;;;;;;5072077;28;20055;-83
2022/12/22 12:59:40;;;;;;;21.58;11.50;;;;;;;;;;5071796;28;20821;-82
2022/12/22 13:02:27;;;;;;;29.52;13.00;;;;;;;;;;5074014;28;20375;-82
2022/12/22 13:05:11;;;;;;;30.17;12.95;;;;;;;;;;5055876;28;20016;-82
2022/12/22 13:08:03;;;;;;;24.40;12.60;;;;;;;;;;5070602;28;20032;-82
2022/12/22 13:10:30;;;;;;;22.13;11.35;;;;;;;;;;5068820;28;20111;-83
2022/12/22 13:12:57;;;;;;;21.65;12.15;;;;;;;;;;5072505;28;20020;-83
2022/12/22 13:15:32;;;;;;;21.50;11.88;;;;;;;;;;5065302;28;20052;-83
2022/12/22 13:17:59;;;;;;;23.27;12.07;;;;;;;;;;5073012;28;20020;-83
2022/12/22 13:20:29;;;;;;;23.15;11.98;;;;;;;;;;5058756;28;20024;-83
2022/12/22 13:22:57;;;;;;;23.15;12.73;;;;;;;;;;5070241;28;20031;-82
2022/12/22 13:25:25;;;;;;;23.65;11.90;;;;;;;;;;5072428;28;20260;-83
2022/12/22 13:27:51;;;;;;;22.50;11.63;;;;;;;;;;5071608;28;20029;-83
2022/12/22 13:30:19;;;;;;;22.83;11.60;;;;;;;;;;5082944;28;20455;-83
2022/12/22 13:32:48;;;;;;;22.50;12.13;;;;;;;;;;5070347;28;20400;-82
2022/12/22 13:35:23;;;;;;;24.67;13.40;;;;;;;;;;5071682;28;20580;-83
2022/12/22 13:37:50;;;;;;;24.88;12.75;;;;;;;;;;5072053;28;20052;-82
2022/12/22 13:40:22;;;;;;;26.60;13.85;;;;;;;;;;5071309;28;20032;-82
2022/12/22 13:42:51;;;;;;;25.27;13.77;;;;;;;;;;5065086;28;20349;-82
2022/12/22 13:45:24;;;;;;;23.77;14.10;;;;;;;;;;5066129;28;20052;-83
2022/12/22 13:47:49;;;;;;;26.13;13.80;;;;;;;;;;5072110;28;20024;-83
2022/12/22 13:50:25;;;;;;;25.05;13.70;;;;;;;;;;5064422;28;20519;-83
2022/12/22 13:52:53;;;;;;;26.65;14.02;;;;;;;;;;5068376;28;20021;-82
2022/12/22 13:55:23;;;;;;;23.20;13.68;;;;;;;;;;5062311;28;20025;-83
2022/12/22 13:57:50;;;;;;;24.42;14.13;;;;;;;;;;5069710;28;20421;-82
2022/12/22 14:00:25;;;;;;;24.67;14.05;;;;;;;;;;5072242;28;20031;-83
2022/12/22 14:02:50;;;;;;;26.15;13.95;;;;;;;;;;5068103;28;20073;-82
2022/12/22 14:05:17;;;;;;;25.13;14.85;;;;;;;;;;5064905;28;20028;-82
2022/12/22 14:08:00;;;;;;;23.80;13.63;;;;;;;;;;5071627;28;20020;-82
2022/12/22 14:10:29;;;;;;;23.52;12.27;;;;;;;;;;5077763;28;20518;-83
2022/12/22 14:12:54;;;;;;;23.63;12.52;;;;;;;;;;5068816;28;20035;-82
2022/12/22 14:15:20;;;;;;;24.85;13.52;;;;;;;;;;5072567;28;20024;-82
2022/12/22 14:17:46;;;;;;;24.98;13.45;;;;;;;;;;5070092;28;20028;-82
2022/12/22 14:20:36;;;;;;;20.90;11.57;;;;;;;;;;5064698;28;20029;-83
2022/12/22 14:23:12;;;;;;;21.77;11.45;;;;;;;;;;5074188;28;20435;-83
2022/12/22 14:25:40;;;;;;;19.52;11.57;;;;;;;;;;5069458;28;20099;-82
2022/12/22 14:28:16;;;;;;;20.35;11.07;;;;;;;;;;5068446;28;20039;-82
2022/12/22 14:30:47;;;;;;;20.92;11.60;;;;;;;;;;5069518;28;20463;-82
2022/12/22 14:33:27;;;;;;;20.45;11.60;;;;;;;;;;5062002;28;20435;-82
2022/12/22 14:36:20;;;;;;;20.10;11.60;;;;;;;;;;5065931;28;20031;-82
2022/12/22 14:38:56;;;;;;;18.92;10.80;;;;;;;;;;5071643;28;20028;-82
2022/12/22 14:41:42;;;;;;;19.13;10.18;;;;;;;;;;5065481;28;20056;-83
2022/12/22 14:44:27;;;;;;;20.00;10.60;;;;;;;;;;5070155;28;20448;-83
2022/12/22 14:47:11;;;;;;;16.25;9.43;;;;;;;;;;5062154;28;20107;-83
2022/12/22 14:49:52;;;;;;;20.33;10.02;;;;;;;;;;5067984;28;20059;-82
2022/12/22 14:52:36;;;;;;;17.40;9.35;;;;;;;;;;5058329;28;20024;-81
2022/12/22 14:55:05;;;;;;;19.02;9.93;;;;;;;;;;5064696;28;20388;-82
2022/12/22 14:57:33;;;;;;;17.50;10.02;;;;;;;;;;5059645;28;20024;-82
2022/12/22 15:00:25;;;;;;;18.20;9.60;;;;;;;;;;5083286;28;20067;-82
2022/12/22 15:02:53;;;;;;;16.70;9.23;;;;;;;;;;5069442;28;20024;-82
2022/12/22 15:05:28;;;;;;;14.32;8.40;;;;;;;;;;5061238;28;20036;-81
2022/12/22 15:07:56;;;;;;;14.90;8.25;;;;;;;;;;5058048;28;20400;-81
2022/12/22 15:10:24;;;;;;;13.40;8.35;;;;;;;;;;5060658;28;20033;-82
2022/12/22 15:12:54;;;;;;;16.33;8.70;;;;;;;;;;5065773;28;20480;-80
2022/12/22 15:15:21;;;;;;;16.73;8.85;;;;;;;;;;5062221;28;20410;-80
2022/12/22 15:17:49;;;;;;;16.58;9.65;;;;;;;;;;5064511;28;20023;-81
2022/12/22 15:20:20;;;;;;;17.13;8.63;;;;;;;;;;5065532;28;20529;-81
2022/12/22 15:22:46;;;;;;;14.82;8.65;;;;;;;;;;5068406;28;20027;-80
2022/12/22 15:25:14;;;;;;;15.70;8.40;;;;;;;;;;5069893;28;20531;-81
2022/12/22 15:27:39;;;;;;;12.30;7.68;;;;;;;;;;5079533;28;20067;-80
2022/12/22 15:30:05;;;;;;;14.23;8.38;;;;;;;;;;5066704;28;20495;-80
2022/12/22 15:32:31;;;;;;;13.60;7.90;;;;;;;;;;5071649;28;20112;-81
2022/12/22 15:34:56;;;;;;;12.93;7.57;;;;;;;;;;5068513;28;20116;-81
2022/12/22 15:37:22;;;;;;;14.95;8.23;;;;;;;;;;5067271;28;20032;-80
2022/12/22 15:39:47;;;;;;;13.00;8.15;;;;;;;;;;5051868;28;20041;-80
2022/12/22 15:42:13;;;;;;;14.00;7.90;;;;;;;;;;5048826;28;20616;-79
2022/12/22 15:44:38;;;;;;;14.70;8.20;;;;;;;;;;5058334;28;20532;-80
2022/12/22 15:47:04;;;;;;;11.88;7.07;;;;;;;;;;5056704;28;20455;-80
2022/12/22 15:49:30;;;;;;;14.77;7.80;;;;;;;;;;5058680;28;20582;-80
2022/12/22 15:52:02;;;;;;;12.23;7.57;;;;;;;;;;5059850;28;20032;-80
2022/12/22 15:54:29;;;;;;;12.70;7.47;;;;;;;;;;5054579;28;20193;-80
2022/12/22 15:56:55;;;;;;;13.82;8.35;;;;;;;;;;5059615;28;20058;-80
2022/12/22 15:59:24;;;;;;;13.93;7.78;;;;;;;;;;5059565;28;20024;-79
2022/12/22 16:01:50;;;;;;;11.57;6.70;;;;;;;;;;5066662;28;20056;-80
2022/12/22 16:04:16;;;;;;;12.65;7.65;;;;;;;;;;5057183;28;20572;-79
2022/12/22 16:06:41;;;;;;;12.23;7.43;;;;;;;;;;5055481;28;20463;-80
2022/12/22 16:09:22;;;;;;;12.20;8.27;;;;;;;;;;5062070;28;20082;-80
2022/12/22 16:11:48;;;;;;;12.32;7.65;;;;;;;;;;5055033;28;20408;-80
2022/12/22 16:14:15;;;;;;;12.95;7.30;;;;;;;;;;5081197;28;20127;-80
2022/12/22 16:16:41;;;;;;;13.40;7.72;;;;;;;;;;5062640;28;20480;-80
2022/12/22 16:19:14;;;;;;;15.35;7.57;;;;;;;;;;5066959;28;20023;-80
2022/12/22 16:21:42;;;;;;;12.20;7.18;;;;;;;;;;5077514;28;20079;-79
2022/12/22 16:24:21;;;;;;;11.70;7.60;;;;;;;;;;5064373;28;20519;-80
2022/12/22 16:26:46;;;;;;;12.32;7.53;;;;;;;;;;5053081;28;20049;-80
2022/12/22 16:29:15;;;;;;;12.90;7.30;;;;;;;;;;5056847;28;20464;-80
2022/12/22 16:31:40;;;;;;;11.45;7.22;;;;;;;;;;5055833;28;20029;-80
2022/12/22 16:34:10;;;;;;;12.68;7.93;;;;;;;;;;5071054;28;20465;-80
2022/12/22 16:36:35;;;;;;;12.38;7.68;;;;;;;;;;5063317;28;20039;-80
2022/12/22 16:39:00;;;;;;;11.65;7.35;;;;;;;;;;5065041;28;20020;-80
2022/12/22 16:41:26;;;;;;;11.68;7.38;;;;;;;;;;5062091;28;20025;-80
2022/12/22 16:43:54;;;;;;;13.48;7.63;;;;;;;;;;5066146;28;20028;-80
2022/12/22 16:46:22;;;;;;;10.68;7.35;;;;;;;;;;5056051;28;20077;-80
2022/12/22 16:48:51;;;;;;;12.35;7.80;;;;;;;;;;5063557;28;20066;-80
2022/12/22 16:51:22;;;;;;;11.60;7.80;;;;;;;;;;5064446;28;20124;-80
2022/12/22 16:53:48;;;;;;;11.93;7.43;;;;;;;;;;5063257;28;20032;-80
2022/12/22 16:56:17;;;;;;;11.88;7.38;;;;;;;;;;5064155;28;20045;-80
2022/12/22 16:58:44;;;;;;;12.57;7.85;;;;;;;;;;5056421;28;20491;-80
2022/12/22 17:01:19;;;;;;;10.63;6.90;;;;;;;;;;5063740;28;20032;-80
2022/12/22 17:03:45;;;;;;;11.07;7.07;;;;;;;;;;5066073;28;20056;-80
2022/12/22 17:06:10;;;;;;;10.80;6.45;;;;;;;;;;5060578;28;20452;-79
2022/12/22 17:08:38;;;;;;;10.80;6.95;;;;;;;;;;5056817;28;20028;-79
2022/12/22 17:11:09;;;;;;;8.93;5.93;;;;;;;;;;5062174;28;20067;-80
2022/12/22 17:13:35;;;;;;;9.13;6.43;;;;;;;;;;5066123;28;20075;-80
2022/12/22 17:16:01;;;;;;;9.65;6.25;;;;;;;;;;5058410;28;20036;-79
2022/12/22 17:18:27;;;;;;;10.30;7.05;;;;;;;;;;5065970;28;20021;-80
2022/12/22 17:20:58;;;;;;;9.20;6.50;;;;;;;;;;5058611;28;20024;-80
2022/12/22 17:23:36;;;;;;;8.95;6.32;;;;;;;;;;5058658;28;20035;-79
2022/12/22 17:26:06;;;;;;;10.10;6.38;;;;;;;;;;5055648;28;20600;-79
2022/12/22 17:28:33;;;;;;;8.73;5.72;;;;;;;;;;5057345;28;20032;-80
2022/12/22 17:30:58;;;;;;;10.07;6.88;;;;;;;;;;5060808;28;20033;-78
2022/12/22 17:33:23;;;;;;;8.02;5.70;;;;;;;;;;5065379;28;20143;-80
2022/12/22 17:35:49;;;;;;;8.85;6.55;;;;;;;;;;5059577;28;20396;-80
2022/12/22 17:38:18;;;;;;;10.05;7.30;;;;;;;;;;5062271;28;20036;-79
2022/12/22 17:40:45;;;;;;;10.88;7.38;;;;;;;;;;5064146;28;20512;-80
2022/12/22 17:43:16;;;;;;;10.52;6.93;;;;;;;;;;5066201;28;20421;-80
2022/12/22 17:45:46;;;;;;;9.95;7.07;;;;;;;;;;5060742;28;20051;-80
2022/12/22 17:48:15;;;;;;;10.25;7.10;;;;;;;;;;5064185;28;20025;-80
2022/12/22 17:50:42;;;;;;;10.85;7.65;;;;;;;;;;5054340;28;20395;-79
2022/12/22 17:53:13;;;;;;;10.02;7.18;;;;;;;;;;5068674;28;20558;-80
2022/12/22 17:55:39;;;;;;;11.77;7.53;;;;;;;;;;5062766;28;20031;-80
2022/12/22 17:58:04;;;;;;;9.85;6.82;;;;;;;;;;5065185;28;20028;-79
2022/12/22 18:00:31;;;;;;;11.98;6.57;;;;;;;;;;5059528;28;20024;-78
2022/12/22 18:02:57;;;;;;;11.15;7.60;;;;;;;;;;5063113;28;20037;-80
2022/12/22 18:05:28;;;;;;;11.02;7.20;;;;;;;;;;5055061;28;20036;-80
2022/12/22 18:07:59;;;;;;;12.43;8.10;;;;;;;;;;5061411;28;20039;-81
2022/12/22 18:10:28;;;;;;;11.27;7.53;;;;;;;;;;5056136;28;20037;-80
2022/12/22 18:12:55;;;;;;;11.02;7.25;;;;;;;;;;5058179;28;20422;-79
2022/12/22 18:15:22;;;;;;;10.02;6.93;;;;;;;;;;5055157;28;20032;-79
2022/12/22 18:17:48;;;;;;;12.85;7.28;;;;;;;;;;5061668;28;20032;-79
2022/12/22 18:20:15;;;;;;;12.40;7.63;;;;;;;;;;5057483;28;20047;-79
2022/12/22 18:22:42;;;;;;;10.43;7.22;;;;;;;;;;5061779;28;20501;-79
2022/12/22 18:25:15;;;;;;;12.50;7.78;;;;;;;;;;5053553;28;20221;-79